Time;durP1;ratioP1;P1;durP2;ratioP2;P2;SDS_P1;SDS_P2;PMS_P1;PMS_P2;Temp;Humidity;BMP_temperature;BMP_pressure;BME280_temperature;BME280_humidity;BME280_pressure;Samples;Min_cycle;Max_cycle;Signal;HPM_P1;HPM_P2
2022/08/24 00:01:42;;;;;;;1.75;1.10;;;;;;;20.04;53.08;101158.41;5016755;28;20051;-83
2022/08/24 00:04:09;;;;;;;3.03;1.02;;;;;;;20.02;52.77;101150.50;5007476;28;20049;-82
2022/08/24 00:06:36;;;;;;;4.25;1.95;;;;;;;19.97;53.02;101160.47;5006901;28;20048;-81
2022/08/24 00:09:02;;;;;;;1.60;1.10;;;;;;;19.91;53.08;101150.09;5011779;28;20057;-81
2022/08/24 00:11:31;;;;;;;1.25;1.10;;;;;;;19.87;53.44;101153.78;5009373;28;20559;-83
2022/08/24 00:13:57;;;;;;;4.55;1.35;;;;;;;19.84;53.62;101144.16;5006834;28;20408;-82
2022/08/24 00:16:24;;;;;;;2.10;1.38;;;;;;;19.81;53.37;101147.78;4990172;28;20057;-82
2022/08/24 00:18:54;;;;;;;5.15;1.20;;;;;;;19.77;53.54;101146.16;4985755;28;20096;-81
2022/08/24 00:21:22;;;;;;;5.72;1.48;;;;;;;19.74;53.63;101151.59;5011109;28;20428;-81
2022/08/24 00:23:51;;;;;;;5.00;1.45;;;;;;;19.70;54.28;101141.13;5024820;28;20046;-82
2022/08/24 00:26:19;;;;;;;2.17;1.35;;;;;;;19.67;53.98;101142.13;5007571;28;20070;-81
2022/08/24 00:28:47;;;;;;;2.67;1.15;;;;;;;19.64;54.25;101144.91;4992835;28;20373;-82
2022/08/24 00:31:14;;;;;;;4.43;1.20;;;;;;;19.59;54.16;101137.09;5008573;28;20041;-81
2022/08/24 00:33:42;;;;;;;4.13;1.10;;;;;;;19.58;54.59;101142.50;5008499;28;20034;-82
2022/08/24 00:36:09;;;;;;;3.45;1.08;;;;;;;19.54;54.41;101135.56;5005256;28;20497;-81
2022/08/24 00:38:36;;;;;;;4.28;1.25;;;;;;;19.51;54.70;101140.06;5010740;28;20053;-82
2022/08/24 00:41:05;;;;;;;1.23;1.02;;;;;;;19.48;54.76;101142.84;5011410;28;20057;-81
2022/08/24 00:43:33;;;;;;;1.85;1.20;;;;;;;19.45;54.92;101144.75;5010850;28;20081;-82
2022/08/24 00:46:22;;;;;;;0.95;0.93;;;;;;;19.44;55.61;101141.25;5007924;28;20038;-83
2022/08/24 00:48:52;;;;;;;2.60;1.13;;;;;;;19.40;55.09;101150.25;4997299;28;20510;-83
2022/08/24 00:51:26;;;;;;;4.80;1.52;;;;;;;19.38;55.43;101144.13;4994610;28;20047;-83
2022/08/24 00:54:02;;;;;;;4.32;1.40;;;;;;;19.36;55.58;101142.44;4994052;28;20102;-82
2022/08/24 00:56:38;;;;;;;3.92;1.55;;;;;;;19.33;55.46;101140.78;5000006;28;20049;-83
2022/08/24 00:59:12;;;;;;;1.85;1.52;;;;;;;19.32;55.99;101147.00;5020129;28;20101;-80
2022/08/24 01:01:43;;;;;;;1.77;1.02;;;;;;;19.32;55.62;101139.03;5004146;28;20051;-83
2022/08/24 01:04:17;;;;;;;2.45;1.20;;;;;;;19.30;55.91;101144.41;5020002;28;20046;-82
2022/08/24 01:06:49;;;;;;;1.13;1.13;;;;;;;19.27;56.07;101133.91;5020939;28;20084;-81
2022/08/24 01:09:17;;;;;;;2.55;1.75;;;;;;;19.20;56.43;101131.56;5014392;28;20038;-82
2022/08/24 01:11:43;;;;;;;2.00;1.20;;;;;;;19.18;56.99;101136.91;5001388;28;20046;-81
2022/08/24 01:14:10;;;;;;;3.28;1.67;;;;;;;19.16;56.96;101142.28;5017084;28;20053;-82
2022/08/24 01:19:42;;;;;;;4.93;1.60;;;;;;;19.08;57.92;101141.69;5000304;28;20330;-82
2022/08/24 01:22:49;;;;;;;4.78;1.42;;;;;;;19.05;58.39;101135.66;5011625;28;20042;-82
2022/08/24 01:25:17;;;;;;;4.45;1.65;;;;;;;19.01;57.80;101137.53;5008050;28;20069;-80
2022/08/24 01:28:04;;;;;;;2.83;1.25;;;;;;;18.97;58.08;101133.28;5024751;28;20054;-82
2022/08/24 01:30:31;;;;;;;1.60;1.38;;;;;;;18.95;58.14;101130.66;5012475;28;20046;-82
2022/08/24 01:33:06;;;;;;;2.47;1.20;;;;;;;18.93;57.98;101143.13;5009564;28;20066;-83
2022/08/24 01:35:36;;;;;;;2.22;1.10;;;;;;;18.90;58.30;101142.38;5027956;28;20539;-81
2022/08/24 01:38:09;;;;;;;1.50;1.40;;;;;;;18.87;58.75;101145.97;5034172;28;20093;-82
2022/08/24 01:40:45;;;;;;;1.27;1.17;;;;;;;18.82;58.69;101140.81;5036350;28;20101;-80
2022/08/24 01:43:15;;;;;;;4.00;0.95;;;;;;;18.80;58.58;101144.47;5019483;28;20117;-81
2022/08/24 01:45:44;;;;;;;4.20;2.15;;;;;;;18.77;58.65;101148.09;5019176;28;20041;-82
2022/08/24 01:48:14;;;;;;;4.13;1.40;;;;;;;18.75;58.69;101152.56;5010792;28;20169;-81
2022/08/24 01:50:41;;;;;;;1.20;1.10;;;;;;;18.71;58.80;101150.94;5004834;28;20104;-82
2022/08/24 01:53:10;;;;;;;3.38;1.30;;;;;;;18.67;59.34;101158.13;5012432;28;20658;-81
2022/08/24 01:55:36;;;;;;;2.10;1.50;;;;;;;18.65;58.95;101154.66;5009960;28;20116;-81
2022/08/24 01:58:05;;;;;;;5.20;1.35;;;;;;;18.63;59.83;101158.28;5021386;28;20038;-81
2022/08/24 02:00:36;;;;;;;5.25;2.20;;;;;;;18.60;59.74;101153.09;4991088;28;20542;-82
2022/08/24 02:03:06;;;;;;;4.28;2.25;;;;;;;18.59;59.95;101154.00;4993320;28;20117;-81
2022/08/24 02:05:33;;;;;;;5.22;1.85;;;;;;;18.57;59.75;101156.72;5004012;28;20038;-83
2022/08/24 02:08:05;;;;;;;1.90;1.27;;;;;;;18.54;60.26;101154.19;4988056;28;20046;-82
2022/08/24 02:10:32;;;;;;;2.65;1.33;;;;;;;18.55;60.33;101160.34;4974282;28;20034;-82
2022/08/24 02:12:59;;;;;;;2.70;1.40;;;;;;;18.55;60.27;101163.00;5010578;28;20663;-82
2022/08/24 02:15:38;;;;;;;3.10;1.52;;;;;;;18.60;60.56;101161.06;4991818;28;20061;-82
2022/08/24 02:18:10;;;;;;;1.63;1.17;;;;;;;18.66;60.47;101161.72;5002502;28;20188;-82
2022/08/24 02:20:37;;;;;;;1.85;1.23;;;;;;;18.72;60.26;101158.00;5022498;28;20085;-80
2022/08/24 02:23:07;;;;;;;1.50;1.38;;;;;;;18.76;60.20;101154.31;5000383;28;20046;-81
2022/08/24 02:25:38;;;;;;;2.28;1.50;;;;;;;18.78;60.65;101163.06;4998995;28;20088;-81
2022/08/24 02:28:06;;;;;;;3.15;1.30;;;;;;;18.80;60.31;101161.22;5005124;28;20629;-81
2022/08/24 02:30:43;;;;;;;2.50;1.42;;;;;;;18.81;60.19;101162.09;5003651;28;20046;-81
2022/08/24 02:33:11;;;;;;;4.82;1.23;;;;;;;18.78;60.37;101175.47;5004339;28;20050;-82
2022/08/24 02:35:37;;;;;;;2.10;1.33;;;;;;;18.71;60.35;101169.50;5005401;28;20064;-82
2022/08/24 02:38:04;;;;;;;1.50;1.27;;;;;;;18.65;60.67;101173.22;5007402;28;20081;-82
2022/08/24 02:40:31;;;;;;;1.88;1.30;;;;;;;18.57;60.53;101167.34;5008885;28;20601;-83
2022/08/24 02:42:58;;;;;;;1.45;1.35;;;;;;;18.52;60.97;101166.63;5006185;28;20061;-81
2022/08/24 02:45:24;;;;;;;1.92;1.38;;;;;;;18.47;61.37;101172.09;5009268;28;20660;-81
2022/08/24 02:47:51;;;;;;;2.10;1.30;;;;;;;18.40;61.29;101181.16;5010550;28;20419;-81
2022/08/24 02:50:20;;;;;;;3.58;1.30;;;;;;;18.38;61.18;101179.47;5007579;28;20052;-82
2022/08/24 02:52:55;;;;;;;3.55;1.23;;;;;;;18.32;61.63;101177.91;5008825;28;20481;-82
2022/08/24 02:55:25;;;;;;;2.00;1.63;;;;;;;18.26;61.70;101178.94;5008111;28;20045;-82
2022/08/24 02:57:51;;;;;;;2.17;1.55;;;;;;;18.19;61.97;101170.34;5019927;28;20048;-82
2022/08/24 03:00:21;;;;;;;1.52;1.42;;;;;;;18.17;62.48;101168.66;5006362;28;20052;-82
2022/08/24 03:02:53;;;;;;;4.72;2.00;;;;;;;18.12;62.88;101179.41;5002591;28;20046;-82
2022/08/24 03:05:22;;;;;;;6.47;2.08;;;;;;;18.09;62.94;101179.50;4999941;28;20133;-81
2022/08/24 03:07:50;;;;;;;5.18;1.90;;;;;;;18.06;62.86;101173.44;5017483;28;20056;-81
2022/08/24 03:10:16;;;;;;;3.90;2.30;;;;;;;18.01;62.99;101182.38;5017215;28;20054;-82
2022/08/24 03:12:43;;;;;;;5.00;1.65;;;;;;;17.98;63.24;101179.00;4989523;28;20053;-82
2022/08/24 03:15:11;;;;;;;2.85;2.22;;;;;;;17.93;63.64;101179.13;4996431;28;20097;-81
2022/08/24 03:17:39;;;;;;;4.18;2.53;;;;;;;17.90;63.94;101176.56;5000825;28;20046;-81
2022/08/24 03:20:10;;;;;;;5.28;2.53;;;;;;;17.90;63.88;101178.31;4965427;28;20049;-83
2022/08/24 03:22:38;;;;;;;2.05;1.95;;;;;;;17.87;64.13;101184.56;4989458;28;20052;-81
2022/08/24 03:25:07;;;;;;;4.00;2.42;;;;;;;17.86;64.68;101178.41;5008981;28;20124;-81
2022/08/24 03:27:33;;;;;;;7.90;2.33;;;;;;;17.83;64.61;101177.63;4994506;28;20054;-81
2022/08/24 03:30:01;;;;;;;2.88;2.17;;;;;;;17.81;64.84;101183.00;4979790;28;20118;-83
2022/08/24 03:32:28;;;;;;;3.88;1.60;;;;;;;17.79;65.04;101176.84;5011012;28;20043;-82
2022/08/24 03:34:57;;;;;;;5.78;2.10;;;;;;;17.77;65.39;101181.34;5019282;28;20050;-82
2022/08/24 03:37:24;;;;;;;2.58;1.95;;;;;;;17.75;65.22;101191.13;5012854;28;20042;-82
2022/08/24 03:39:51;;;;;;;5.15;3.00;;;;;;;17.71;65.91;101178.88;5015911;28;20030;-82
2022/08/24 03:42:20;;;;;;;10.20;2.05;;;;;;;17.71;66.00;101180.69;5005764;28;20045;-82
2022/08/24 03:44:47;;;;;;;4.72;1.83;;;;;;;17.72;66.45;101179.75;5017126;28;20038;-82
2022/08/24 03:47:14;;;;;;;3.05;2.50;;;;;;;17.71;65.95;101173.59;4990982;28;20046;-82
2022/08/24 03:49:42;;;;;;;5.13;2.28;;;;;;;17.71;65.78;101178.03;5007398;28;20076;-82
2022/08/24 03:52:10;;;;;;;3.50;2.40;;;;;;;17.68;66.12;101179.84;4992585;28;20053;-82
2022/08/24 03:54:37;;;;;;;6.57;1.88;;;;;;;17.68;66.15;101185.13;5002867;28;20045;-82
2022/08/24 03:57:04;;;;;;;3.95;2.22;;;;;;;17.68;66.27;101189.59;5005127;28;20065;-82
2022/08/24 03:59:31;;;;;;;3.47;2.20;;;;;;;17.65;66.03;101189.66;5026163;28;20060;-82
2022/08/24 04:01:57;;;;;;;2.00;1.90;;;;;;;17.63;66.02;101189.72;5012047;28;20065;-83
2022/08/24 04:04:25;;;;;;;1.98;1.77;;;;;;;17.63;65.82;101183.56;5001053;28;20058;-82
2022/08/24 04:06:54;;;;;;;2.60;2.40;;;;;;;17.63;66.30;101189.72;5017727;28;20872;-82
2022/08/24 04:09:21;;;;;;;6.43;2.40;;;;;;;17.61;66.45;101186.25;5012187;28;20070;-81
2022/08/24 04:11:49;;;;;;;2.78;2.25;;;;;;;17.61;66.50;101188.00;5008759;28;20481;-81
2022/08/24 04:14:18;;;;;;;7.00;2.72;;;;;;;17.60;66.67;101186.28;5026091;28;20157;-81
2022/08/24 04:16:44;;;;;;;5.43;1.90;;;;;;;17.55;66.77;101186.44;5008050;28;20121;-81
2022/08/24 04:19:22;;;;;;;3.65;2.28;;;;;;;17.53;67.02;101188.25;5010593;28;20042;-81
2022/08/24 04:21:50;;;;;;;3.28;1.92;;;;;;;17.49;67.17;101184.81;4991010;28;20121;-81
2022/08/24 04:24:18;;;;;;;5.50;2.22;;;;;;;17.45;67.58;101185.81;5010653;28;20196;-82
2022/08/24 04:26:45;;;;;;;4.03;2.60;;;;;;;17.45;67.35;101179.66;5009216;28;20044;-81
2022/08/24 04:29:15;;;;;;;4.57;2.42;;;;;;;17.43;67.53;101184.13;4991204;28;20042;-81
2022/08/24 04:31:43;;;;;;;4.20;2.03;;;;;;;17.43;67.44;101178.84;5006020;28;20112;-80
2022/08/24 04:34:14;;;;;;;3.15;1.95;;;;;;;17.43;67.45;101177.06;4986554;28;20050;-80
2022/08/24 04:36:43;;;;;;;2.58;2.05;;;;;;;17.45;67.60;101188.47;5003260;28;20568;-81
2022/08/24 04:39:10;;;;;;;2.70;1.90;;;;;;;17.45;67.97;101191.09;5005361;28;20072;-81
2022/08/24 04:41:37;;;;;;;3.85;2.22;;;;;;;17.45;67.97;101195.53;5017710;28;20057;-81
2022/08/24 04:44:04;;;;;;;3.67;2.10;;;;;;;17.45;67.81;101198.19;5003659;28;20058;-82
2022/08/24 04:46:32;;;;;;;2.80;1.63;;;;;;;17.46;67.90;101206.09;5024859;28;20042;-82
2022/08/24 04:49:04;;;;;;;3.13;1.80;;;;;;;17.48;68.01;101195.44;4991940;28;20099;-80
2022/08/24 04:51:30;;;;;;;5.78;2.25;;;;;;;17.50;68.45;101198.94;5003575;28;20049;-80
2022/08/24 04:53:58;;;;;;;2.55;1.92;;;;;;;17.49;68.02;101191.91;4992490;28;20044;-82
2022/08/24 04:56:26;;;;;;;7.85;2.17;;;;;;;17.51;68.10;101203.31;5001541;28;20053;-80
2022/08/24 04:58:56;;;;;;;1.95;1.73;;;;;;;17.51;68.05;101205.97;4997360;28;20132;-82
2022/08/24 05:01:27;;;;;;;3.67;1.80;;;;;;;17.52;67.97;101213.84;5041280;28;20046;-81
2022/08/24 05:03:55;;;;;;;3.80;2.30;;;;;;;17.56;68.06;101213.75;5032969;28;20038;-82
2022/08/24 05:06:27;;;;;;;2.72;2.35;;;;;;;17.57;68.06;101218.16;5031112;28;20104;-82
2022/08/24 05:08:55;;;;;;;3.88;2.28;;;;;;;17.59;68.36;101224.28;5007929;28;20014;-82
2022/08/24 05:11:24;;;;;;;5.18;1.92;;;;;;;17.62;68.14;101221.53;5013888;28;20040;-80
2022/08/24 05:13:59;;;;;;;5.00;2.00;;;;;;;17.65;68.04;101219.66;4996749;28;20651;-81
2022/08/24 05:16:26;;;;;;;15.98;2.65;;;;;;;17.67;67.96;101209.03;5014809;28;20802;-80
2022/08/24 05:18:56;;;;;;;8.15;2.65;;;;;;;17.69;68.21;101215.13;5014523;28;20050;-80
2022/08/24 05:21:24;;;;;;;3.55;2.40;;;;;;;17.72;68.09;101215.03;5012186;28;20059;-81
2022/08/24 05:23:51;;;;;;;2.58;2.17;;;;;;;17.77;68.12;101215.78;5008535;28;20441;-82
2022/08/24 05:26:25;;;;;;;7.43;2.15;;;;;;;17.81;67.88;101208.63;5008478;28;20444;-81
2022/08/24 05:29:01;;;;;;;3.78;2.33;;;;;;;17.85;67.99;101208.47;5007740;28;20647;-82
2022/08/24 05:31:31;;;;;;;4.70;2.08;;;;;;;17.88;68.07;101220.75;5002326;28;20050;-81
2022/08/24 05:34:02;;;;;;;7.28;2.28;;;;;;;17.90;67.83;101218.94;5018290;28;20367;-81
2022/08/24 05:36:36;;;;;;;3.55;2.05;;;;;;;17.94;68.20;101212.66;5002830;28;20050;-81
2022/08/24 05:39:09;;;;;;;6.65;2.60;;;;;;;17.99;68.37;101228.38;5003109;28;20065;-81
2022/08/24 05:41:36;;;;;;;4.90;2.38;;;;;;;18.04;68.83;101217.66;5019230;28;20129;-80
2022/08/24 05:44:05;;;;;;;6.00;2.70;;;;;;;18.07;67.91;101218.44;5001870;28;20440;-79
2022/08/24 05:46:33;;;;;;;9.20;2.70;;;;;;;18.10;67.98;101220.97;4988844;28;20042;-80
2022/08/24 05:49:02;;;;;;;5.28;2.42;;;;;;;18.17;68.18;101219.88;5022688;28;20073;-80
2022/08/24 05:51:31;;;;;;;6.53;2.33;;;;;;;18.22;67.82;101221.50;5007829;28;20042;-81
2022/08/24 05:54:03;;;;;;;7.30;1.80;;;;;;;18.28;67.83;101216.88;5020859;28;20057;-80
2022/08/24 05:56:31;;;;;;;3.55;2.28;;;;;;;18.37;67.36;101223.69;4991073;28;20045;-81
2022/08/24 05:58:59;;;;;;;9.30;2.63;;;;;;;18.43;67.18;101233.19;5018535;28;20046;-81
2022/08/24 06:01:28;;;;;;;4.45;2.42;;;;;;;18.49;66.92;101228.56;5009110;28;20042;-81
2022/08/24 06:03:57;;;;;;;4.38;2.10;;;;;;;18.55;66.90;101230.16;4990343;28;20185;-79
2022/08/24 06:06:27;;;;;;;6.18;2.15;;;;;;;18.61;66.70;101235.25;5021657;28;20124;-80
2022/08/24 06:09:02;;;;;;;7.10;2.13;;;;;;;18.70;66.63;101236.72;5006845;28;20070;-79
2022/08/24 06:11:38;;;;;;;6.10;2.30;;;;;;;18.75;66.64;101242.75;4995247;28;20553;-82
2022/08/24 06:14:11;;;;;;;3.40;2.80;;;;;;;18.81;66.39;101250.50;5005252;28;20111;-83
2022/08/24 06:16:47;;;;;;;6.35;2.85;;;;;;;18.90;66.13;101248.47;5012779;28;20057;-80
2022/08/24 06:19:18;;;;;;;5.10;2.13;;;;;;;18.98;66.01;101249.97;5013337;28;20056;-82
2022/08/24 06:21:49;;;;;;;6.68;2.00;;;;;;;19.06;65.90;101251.47;5000992;28;20129;-84
2022/08/24 06:29:43;;;;;;;3.45;1.98;;;;;;;19.38;65.45;101252.13;5006920;28;20637;-81
2022/08/24 06:32:10;;;;;;;6.68;2.05;;;;;;;19.47;64.82;101257.09;5003883;28;20054;-82
2022/08/24 06:34:38;;;;;;;8.40;2.20;;;;;;;19.55;64.51;101254.16;4988644;28;20128;-82
2022/08/24 06:37:06;;;;;;;3.22;2.03;;;;;;;19.67;64.33;101257.22;4991288;28;20057;-83
2022/08/24 06:39:33;;;;;;;4.20;2.30;;;;;;;19.81;63.95;101256.72;5015325;28;20057;-81
2022/08/24 06:42:02;;;;;;;6.05;2.35;;;;;;;20.00;63.30;101259.53;5010043;28;20343;-83
2022/08/24 06:44:30;;;;;;;6.43;2.58;;;;;;;20.25;62.75;101257.72;4992173;28;20092;-83
2022/08/24 06:46:59;;;;;;;4.18;2.08;;;;;;;20.58;61.83;101254.59;5006686;28;20125;-82
2022/08/24 06:49:26;;;;;;;4.93;2.25;;;;;;;21.01;60.35;101265.28;5026684;28;20049;-82
2022/08/24 06:51:54;;;;;;;3.70;2.28;;;;;;;21.44;59.35;101260.72;5022096;28;20050;-82
2022/08/24 06:54:29;;;;;;;3.35;2.15;;;;;;;21.83;58.36;101259.84;4989439;28;20053;-82
2022/08/24 06:57:01;;;;;;;1.83;1.33;;;;;;;22.28;57.42;101265.72;4991143;28;20077;-82
2022/08/24 06:59:30;;;;;;;3.45;1.75;;;;;;;22.69;56.27;101267.34;4993691;28;20069;-82
2022/08/24 07:02:03;;;;;;;5.82;2.30;;;;;;;23.07;54.27;101262.69;5006525;28;20137;-84
2022/08/24 07:04:31;;;;;;;2.30;2.00;;;;;;;23.48;53.86;101263.31;4994909;28;20401;-82
2022/08/24 07:07:04;;;;;;;3.47;1.80;;;;;;;23.80;52.63;101269.56;5011099;28;20090;-82
2022/08/24 07:09:33;;;;;;;3.38;1.75;;;;;;;24.13;51.28;101268.66;5015979;28;20061;-81
2022/08/24 07:12:02;;;;;;;5.65;1.77;;;;;;;24.47;50.67;101269.44;5007625;28;20046;-83
2022/08/24 07:14:32;;;;;;;10.60;2.58;;;;;;;24.74;49.54;101268.81;5012166;28;20100;-81
2022/08/24 07:17:03;;;;;;;3.67;1.67;;;;;;;25.08;47.71;101274.81;5016308;28;20896;-83
2022/08/24 07:19:31;;;;;;;6.22;1.98;;;;;;;25.26;47.75;101278.19;5022451;28;20049;-82
2022/08/24 07:22:02;;;;;;;2.58;1.80;;;;;;;25.46;46.60;101273.47;5025476;28;20034;-83
2022/08/24 07:27:14;;;;;;;4.78;1.33;;;;;;;26.13;45.87;101283.59;4991847;28;20064;-84
2022/08/24 07:29:45;;;;;;;4.35;1.63;;;;;;;26.42;44.66;101292.41;4988339;28;20852;-82
2022/08/24 07:32:14;;;;;;;1.50;1.40;;;;;;;26.70;44.15;101291.44;5002950;28;20475;-83
2022/08/24 07:34:45;;;;;;;3.65;1.60;;;;;;;27.12;43.44;101285.09;5009307;28;20117;-84
2022/08/24 07:37:11;;;;;;;7.13;2.10;;;;;;;27.65;41.73;101291.28;5011912;28;20421;-84
2022/08/24 07:39:39;;;;;;;5.18;1.63;;;;;;;27.63;41.68;101293.22;5011036;28;20143;-82
2022/08/24 07:42:06;;;;;;;3.45;1.63;;;;;;;27.88;41.50;101286.91;5008378;28;20042;-83
2022/08/24 07:44:33;;;;;;;1.60;1.45;;;;;;;28.14;40.79;101294.09;5031261;28;20042;-83
2022/08/24 07:47:01;;;;;;;3.70;1.70;;;;;;;28.39;39.13;101290.44;5016718;28;20042;-84
2022/08/24 07:49:27;;;;;;;3.50;2.28;;;;;;;28.50;39.29;101290.50;5007258;28;20041;-83
2022/08/24 07:51:54;;;;;;;1.52;1.42;;;;;;;28.59;39.03;101290.78;5006736;28;20116;-84
2022/08/24 07:54:21;;;;;;;2.58;1.30;;;;;;;28.85;38.59;101294.22;4983399;28;20049;-84
2022/08/24 07:56:49;;;;;;;2.40;1.50;;;;;;;29.15;37.94;101298.22;5004262;28;20038;-84
2022/08/24 07:59:17;;;;;;;1.88;1.33;;;;;;;29.50;37.43;101303.59;5006919;28;20066;-85
2022/08/24 08:01:44;;;;;;;2.20;1.38;;;;;;;29.69;36.61;101304.81;5007895;28;20921;-83
2022/08/24 08:04:12;;;;;;;2.35;1.48;;;;;;;30.13;35.95;101302.22;5004810;28;20088;-84
2022/08/24 08:06:45;;;;;;;2.25;1.00;;;;;;;30.20;35.74;101303.44;5021594;28;20051;-84
2022/08/24 08:09:11;;;;;;;3.60;1.35;;;;;;;30.12;35.47;101304.06;4995218;28;20062;-84
2022/08/24 08:11:45;;;;;;;2.38;1.33;;;;;;;30.41;34.96;101302.66;4992666;28;20050;-85
2022/08/24 08:14:13;;;;;;;1.70;1.50;;;;;;;31.00;34.26;101310.31;4978148;28;20057;-82
2022/08/24 08:16:45;;;;;;;1.55;1.40;;;;;;;31.25;33.85;101307.34;4996200;28;20065;-83
2022/08/24 08:19:13;;;;;;;4.50;1.50;;;;;;;31.83;32.87;101301.38;5005095;28;20164;-85
2022/08/24 08:27:15;;;;;;;5.78;1.92;;;;;;;32.55;31.79;101304.81;5030390;28;20034;-85
2022/08/24 08:29:44;;;;;;;5.57;1.60;;;;;;;32.60;31.33;101299.00;5032733;28;20032;-84
2022/08/24 08:32:25;;;;;;;4.40;1.88;;;;;;;32.73;31.02;101291.44;5030314;28;20295;-83
2022/08/24 08:34:53;;;;;;;2.45;1.30;;;;;;;33.30;30.45;101302.38;5029671;28;20056;-84
2022/08/24 08:37:19;;;;;;;5.55;1.77;;;;;;;33.17;30.52;101300.94;5031806;28;20036;-84
2022/08/24 08:39:46;;;;;;;1.67;1.30;;;;;;;33.03;29.87;101286.00;5003762;28;20045;-84
2022/08/24 08:43:03;;;;;;;5.38;1.92;;;;;;;33.23;29.88;101289.50;5030404;28;20036;-83
2022/08/24 08:46:09;;;;;;;2.17;1.52;;;;;;;33.37;28.86;101299.09;5036497;28;20053;-85
2022/08/24 08:49:37;;;;;;;3.10;1.27;;;;;;;33.38;29.06;101287.22;5029604;28;20592;-85
2022/08/24 08:52:30;;;;;;;2.72;1.42;;;;;;;34.05;28.64;101281.63;5028626;28;20058;-83
2022/08/24 08:55:11;;;;;;;2.88;1.48;;;;;;;34.17;27.62;101291.28;5020116;28;20507;-83
2022/08/24 08:58:17;;;;;;;2.05;1.55;;;;;;;34.78;27.26;101277.94;5026987;28;20050;-84
2022/08/24 09:01:06;;;;;;;3.67;1.58;;;;;;;35.04;26.83;101280.69;5015252;28;20052;-84
2022/08/24 09:04:21;;;;;;;4.72;1.90;;;;;;;35.23;26.38;101276.91;5027645;28;20045;-84
2022/08/24 09:07:22;;;;;;;5.07;1.63;;;;;;;35.41;26.29;101281.44;5009066;28;20050;-83
2022/08/24 09:10:23;;;;;;;2.72;1.25;;;;;;;35.75;25.65;101275.16;5032515;28;20056;-84
2022/08/24 09:13:18;;;;;;;2.33;1.70;;;;;;;36.16;24.87;101278.00;5018563;28;20053;-84
2022/08/24 09:16:18;;;;;;;3.45;1.52;;;;;;;36.14;25.04;101277.34;5008399;28;20132;-85
2022/08/24 09:19:00;;;;;;;1.75;1.30;;;;;;;36.29;24.52;101282.97;5023126;28;20578;-84
2022/08/24 09:22:13;;;;;;;3.30;1.60;;;;;;;36.03;24.64;101273.03;5009234;28;20136;-85
2022/08/24 09:24:52;;;;;;;2.72;1.25;;;;;;;36.61;24.27;101278.63;5023576;28;20100;-83
2022/08/24 09:27:54;;;;;;;3.10;1.25;;;;;;;36.91;23.97;101270.78;5024328;28;20072;-84
2022/08/24 09:30:28;;;;;;;2.33;1.50;;;;;;;37.11;23.62;101273.97;4978200;28;20142;-85
2022/08/24 09:33:20;;;;;;;2.45;2.25;;;;;;;37.18;23.67;101275.00;5013818;28;20098;-85
2022/08/24 09:36:12;;;;;;;1.63;1.15;;;;;;;37.66;22.06;101277.75;5022211;28;20081;-84
2022/08/24 09:39:26;;;;;;;2.15;1.20;;;;;;;37.99;21.70;101282.22;4996484;28;20176;-84
2022/08/24 09:42:46;;;;;;;1.85;1.38;;;;;;;38.28;22.03;101276.09;4991766;28;20058;-85
2022/08/24 09:45:46;;;;;;;1.67;1.02;;;;;;;38.48;20.71;101276.44;5004660;28;20050;-84
2022/08/24 09:49:15;;;;;;;2.28;1.40;;;;;;;38.05;21.36;101274.16;4991607;28;20049;-84
2022/08/24 09:52:20;;;;;;;2.78;1.30;;;;;;;38.38;20.99;101278.56;5003754;28;20403;-85
2022/08/24 09:55:42;;;;;;;2.50;1.48;;;;;;;38.71;20.72;101279.16;5004977;28;20148;-85
2022/08/24 09:59:04;;;;;;;3.15;1.38;;;;;;;38.97;20.77;101274.31;5005329;28;20888;-84
2022/08/24 10:02:15;;;;;;;3.22;1.50;;;;;;;38.30;21.88;101278.66;5006875;28;20072;-85
2022/08/24 10:05:16;;;;;;;1.88;1.40;;;;;;;38.50;21.95;101285.31;5005368;28;20049;-84
2022/08/24 10:08:07;;;;;;;1.55;0.95;;;;;;;37.88;21.76;101284.31;5008800;28;20498;-83
2022/08/24 10:11:09;;;;;;;2.42;1.42;;;;;;;38.52;21.27;101279.66;5006543;28;20077;-83
2022/08/24 10:13:51;;;;;;;5.75;1.27;;;;;;;39.20;20.57;101277.88;5004167;28;20093;-85
2022/08/24 10:16:47;;;;;;;1.35;1.10;;;;;;;39.19;20.52;101270.69;5005939;28;20703;-84
2022/08/24 10:20:06;;;;;;;5.28;1.38;;;;;;;40.09;19.55;101277.97;5006637;28;20046;-85
2022/08/24 10:23:08;;;;;;;1.45;0.98;;;;;;;40.53;19.00;101259.66;5001414;28;20084;-85
2022/08/24 10:25:57;;;;;;;4.00;1.20;;;;;;;40.88;18.25;101262.47;5004547;28;20057;-84
2022/08/24 10:29:01;;;;;;;5.35;1.63;;;;;;;40.86;18.48;101268.16;5007225;28;20068;-84
2022/08/24 10:31:46;;;;;;;2.50;1.40;;;;;;;41.15;17.77;101261.63;5009349;28;20045;-84
2022/08/24 10:35:10;;;;;;;2.85;1.30;;;;;;;40.91;18.18;101267.56;5032354;28;20117;-86
2022/08/24 10:42:08;;;;;;;2.83;1.40;;;;;;;41.72;17.27;101257.88;5006500;28;20281;-85
2022/08/24 10:44:59;;;;;;;9.10;1.50;;;;;;;40.44;16.82;101253.44;4997805;28;20060;-84
2022/08/24 10:47:39;;;;;;;2.05;1.00;;;;;;;40.47;18.01;101248.41;5020641;28;20049;-84
2022/08/24 10:50:28;;;;;;;2.75;1.38;;;;;;;40.76;18.38;101245.72;5002244;28;20504;-85
2022/08/24 10:53:12;;;;;;;5.75;1.30;;;;;;;41.57;16.79;101252.56;5005930;28;20043;-84
2022/08/24 10:55:43;;;;;;;1.40;1.00;;;;;;;41.72;16.98;101253.25;5003426;28;20451;-86
2022/08/24 10:58:44;;;;;;;3.90;1.05;;;;;;;42.25;15.96;101249.81;5002812;28;20488;-85
2022/08/24 11:01:33;;;;;;;2.30;0.95;;;;;;;41.75;16.35;101249.25;5000765;28;20892;-84
2022/08/24 11:04:14;;;;;;;7.53;1.92;;;;;;;42.23;16.38;101238.16;4998688;28;20073;-83
2022/08/24 11:06:44;;;;;;;1.48;1.05;;;;;;;42.34;15.98;101247.69;4987419;28;20130;-85
2022/08/24 11:09:16;;;;;;;1.80;0.95;;;;;;;42.12;15.96;101247.00;5016044;28;20046;-85
2022/08/24 11:11:51;;;;;;;1.70;1.00;;;;;;;42.42;15.20;101243.91;4982594;28;20106;-83
2022/08/24 11:14:29;;;;;;;3.20;1.65;;;;;;;42.24;14.93;101253.63;4982731;28;20076;-86
2022/08/24 11:17:18;;;;;;;1.27;1.02;;;;;;;42.37;15.45;101239.00;5007571;28;20046;-85
2022/08/24 11:19:48;;;;;;;2.65;1.13;;;;;;;42.02;15.88;101238.31;4991065;28;20053;-85
2022/08/24 11:22:40;;;;;;;2.47;1.15;;;;;;;42.80;15.27;101241.38;5020359;28;20050;-85
2022/08/24 11:25:21;;;;;;;1.63;1.00;;;;;;;43.16;14.81;101233.69;5019794;28;20089;-85
2022/08/24 11:28:41;;;;;;;3.45;1.27;;;;;;;42.90;15.72;101237.31;5005318;28;20046;-84
2022/08/24 11:31:24;;;;;;;2.10;1.20;;;;;;;42.62;15.70;101230.13;4974918;28;20112;-85
2022/08/24 11:34:02;;;;;;;3.45;1.50;;;;;;;42.31;16.00;101243.47;5018240;28;20045;-84
2022/08/24 11:36:36;;;;;;;1.30;0.80;;;;;;;43.15;15.52;101231.16;5013006;28;20131;-86
2022/08/24 11:39:51;;;;;;;5.22;1.58;;;;;;;43.99;14.28;101226.53;5022257;28;20034;-85
2022/08/24 11:42:54;;;;;;;2.17;1.20;;;;;;;42.74;15.47;101230.34;5008993;28;20489;-85
2022/08/24 11:45:44;;;;;;;3.47;1.15;;;;;;;43.33;15.15;101233.22;5025741;28;20060;-86
2022/08/24 11:48:34;;;;;;;5.47;0.95;;;;;;;43.82;14.51;101233.59;5025092;28;20041;-87
2022/08/24 11:51:35;;;;;;;2.03;1.17;;;;;;;44.36;14.06;101226.69;5014492;28;20042;-86
2022/08/24 11:54:18;;;;;;;4.57;1.40;;;;;;;44.27;14.27;101244.56;5046048;28;20041;-85
2022/08/24 11:57:23;;;;;;;2.83;1.25;;;;;;;44.13;14.67;101227.25;5033198;28;20094;-86
2022/08/24 12:00:12;;;;;;;2.97;1.25;;;;;;;43.83;14.77;101219.59;5025224;28;20032;-86
2022/08/24 12:03:05;;;;;;;3.00;1.30;;;;;;;44.82;14.15;101221.81;5017734;28;20053;-86
2022/08/24 12:05:41;;;;;;;1.10;1.00;;;;;;;44.43;14.29;101215.59;5036071;28;20030;-85
2022/08/24 12:08:34;;;;;;;6.90;1.50;;;;;;;43.39;15.19;101221.28;5030528;28;20129;-85
2022/08/24 12:11:36;;;;;;;1.42;1.33;;;;;;;44.56;14.55;101218.22;5030213;28;20073;-85
2022/08/24 12:14:17;;;;;;;6.50;1.70;;;;;;;45.60;13.92;101226.91;5032461;28;20034;-86
2022/08/24 12:16:57;;;;;;;1.85;1.60;;;;;;;45.76;13.58;101223.44;5032813;28;20076;-87
2022/08/24 12:19:42;;;;;;;3.63;1.53;;;;;;;45.05;13.87;101209.25;5031348;28;20125;-85
2022/08/24 12:22:10;;;;;;;4.65;1.77;;;;;;;44.48;13.74;101217.69;5025329;28;20301;-86
2022/08/24 12:24:50;;;;;;;2.95;1.10;;;;;;;44.81;14.09;101216.53;5026056;28;20057;-86
2022/08/24 12:27:34;;;;;;;4.68;1.67;;;;;;;45.09;13.79;101213.25;5030218;28;20041;-86